Ciili, Kazakhstan
Current Conditions -  °F | °C
As of 6:30 AM on Tuesday 25 Nov 2014 (Local Time) from UAOO Reporting Station
Clear Clear  
Wind Chill: -18°   Ceiling: Unl
Heat Index: -2°   Visibility: 6mi
Dew Point: -8°   Wind: 9mph
Humidity: 78%   Direction: 10°N
Pressure: 30.62"   Gusts: NA
Location:  44.17°N, 66.75°E
Report Text: UAOO 250130Z 01004MPS CAVOK M19/M22 Q1037 NOSIG RMKQFE766/1021
Loading
Personal Weather Stations






























Interactive Weather Map New forecast layout! Learn more

10-Day Weather Forecast

Advertisements
Track Severe Weather on mobile